createdAt,value
2023-01-25T00:06:05.775Z,3.30
2023-01-25T00:21:16.837Z,3.50
2023-01-25T00:36:27.629Z,3.30
2023-01-25T00:51:29.666Z,3.40
2023-01-25T01:06:31.603Z,3.40
2023-01-25T01:21:33.583Z,3.70
2023-01-25T01:36:35.604Z,3.70
2023-01-25T01:51:48.852Z,3.90
2023-01-25T02:06:57.679Z,3.70
2023-01-25T02:22:07.747Z,3.80
2023-01-25T02:37:14.871Z,3.60
2023-01-25T02:52:16.848Z,3.30
2023-01-25T03:07:18.781Z,3.40
2023-01-25T03:22:20.755Z,3.30
2023-01-25T03:37:22.899Z,3.10
2023-01-25T03:52:26.888Z,3.10
2023-01-25T04:07:28.846Z,3.30
2023-01-25T04:22:30.752Z,3.50
2023-01-25T04:37:32.682Z,3.20
2023-01-25T04:52:34.638Z,3.60
2023-01-25T05:07:36.891Z,3.70
2023-01-25T05:22:38.824Z,3.60
2023-01-25T05:37:40.739Z,3.10
2023-01-25T05:52:42.677Z,3.60
2023-01-25T06:07:44.684Z,3.60
2023-01-25T06:22:51.071Z,3.70
2023-01-25T06:37:56.715Z,3.70
2023-01-25T06:52:58.674Z,3.60
2023-01-25T07:08:00.633Z,3.70
2023-01-25T07:23:02.806Z,3.40
2023-01-25T07:38:04.875Z,3.50
2023-01-25T07:53:06.944Z,3.50
2023-01-25T08:08:08.897Z,3.50
2023-01-25T08:23:10.914Z,3.40
2023-01-25T08:38:12.878Z,3.70
2023-01-25T08:53:15.005Z,3.40
2023-01-25T09:08:16.993Z,3.30
2023-01-25T09:23:22.878Z,3.60
2023-01-25T09:38:25.467Z,3.90
2023-01-25T09:53:47.802Z,3.40
2023-01-25T10:08:59.030Z,3.20
2023-01-25T10:24:26.631Z,3.50
2023-01-25T10:39:30.313Z,3.40
2023-01-25T10:54:32.363Z,3.20
2023-01-25T11:09:37.371Z,3.70
2023-01-25T11:24:43.432Z,3.80
2023-01-25T11:39:56.457Z,4.20
2023-01-25T11:55:07.197Z,4.20
2023-01-25T12:10:32.419Z,4.30
2023-01-25T12:25:49.362Z,4.50
2023-01-25T12:41:04.994Z,4.40
2023-01-25T12:56:10.032Z,4.40
2023-01-25T13:11:26.951Z,4.30
2023-01-25T13:26:50.114Z,4.30
2023-01-25T13:42:01.022Z,4.40
2023-01-25T13:57:13.437Z,4.20
2023-01-25T14:12:40.784Z,4.40
2023-01-25T14:28:02.399Z,4.10
2023-01-25T14:43:04.476Z,4.00
2023-01-25T14:58:08.576Z,4.10
2023-01-25T15:13:15.094Z,4.10
2023-01-25T15:28:17.399Z,4.10
2023-01-25T15:43:20.221Z,4.00
2023-01-25T15:58:30.577Z,3.80
2023-01-25T16:13:32.550Z,3.80
2023-01-25T16:28:34.487Z,3.70
2023-01-25T16:43:42.689Z,3.70
2023-01-25T16:58:45.222Z,3.80
2023-01-25T17:13:55.507Z,4.00
2023-01-25T17:28:59.115Z,3.60
2023-01-25T17:44:01.141Z,3.60
2023-01-25T17:59:04.713Z,3.50
2023-01-25T18:14:10.142Z,3.50
2023-01-25T18:29:15.182Z,3.60
2023-01-25T18:44:17.270Z,3.30
2023-01-25T18:59:19.182Z,3.50
2023-01-25T19:14:22.108Z,3.40
2023-01-25T19:29:24.105Z,3.30
2023-01-25T19:44:26.153Z,3.20
2023-01-25T19:59:29.113Z,3.30
2023-01-25T20:14:31.105Z,3.20
2023-01-25T20:29:33.039Z,3.20
2023-01-25T20:44:35.077Z,3.20
2023-01-25T20:59:37.051Z,3.40
2023-01-25T21:14:39.075Z,3.50
2023-01-25T21:29:41.009Z,3.50
2023-01-25T21:45:01.357Z,3.50
2023-01-25T22:00:05.515Z,3.20
2023-01-25T22:15:08.055Z,3.10
2023-01-25T22:30:11.428Z,3.20
2023-01-25T22:45:13.617Z,3.30
2023-01-25T23:00:16.002Z,3.40
2023-01-25T23:15:17.990Z,3.30
2023-01-25T23:30:21.284Z,3.40
2023-01-25T23:45:23.339Z,3.30
